.
WxDataArchive / Data Records for 2008-06-26
2008-06-25 June 2008 2008-06-27

Data Records for Thursday, 26 June 2008

Time	Temp	Chill	HIndex	Humid	Dewpt	 Wind 	HiWind	WindDir	Rain 	Barom 
-----	----	-----	------	-----	-----	------	------	-------	-----	----- 
00:00	67.3	67.3	67.3	95	65.8	0	0	---	0.00	29.895 
00:05	67.1	67.1	67.1	95	65.6	0	0	---	0.00	29.893 
00:10	67.1	67.1	67.1	95	65.6	0	0	---	0.00	29.893 
00:15	67.1	67.1	67.1	95	65.6	0	0	---	0.00	29.893 
00:20	67.3	67.3	67.3	95	65.8	0	0	---	0.00	29.893 
00:25	67.3	67.3	67.3	95	65.8	0	0	---	0.00	29.891 
00:30	67.1	67.1	67.1	96	65.9	0	0	---	0.00	29.888 
00:35	67.1	67.1	67.1	96	65.9	0	0	---	0.00	29.889 
00:40	66.9	66.9	66.9	96	65.7	0	0	---	0.00	29.890 
00:45	66.8	66.8	66.8	96	65.6	0	0	---	0.00	29.890 
00:50	66.8	66.8	66.8	96	65.6	0	0	---	0.00	29.891 
00:55	66.6	66.6	66.6	96	65.4	0	0	---	0.00	29.887 
01:00	66.4	66.4	66.4	96	65.2	0	0	---	0.00	29.882 
01:05	66.4	66.4	66.4	96	65.2	0	0	---	0.00	29.879 
01:10	66.3	66.3	66.3	96	65.1	0	0	---	0.00	29.879 
01:15	66.3	66.3	66.3	96	65.1	0	0	---	0.00	29.877 
01:20	66.1	66.1	66.1	96	64.9	0	0	---	0.00	29.875 
01:25	66.0	66.0	66.0	96	64.8	0	0	---	0.00	29.875 
01:30	65.8	65.8	65.8	96	64.6	0	0	---	0.00	29.875 
01:35	65.8	65.8	65.8	96	64.6	0	0	---	0.00	29.874 
01:40	65.6	65.6	65.6	96	64.4	0	0	---	0.00	29.873 
01:45	65.6	65.6	65.6	96	64.4	0	0	---	0.00	29.870 
01:50	65.5	65.5	65.5	96	64.3	0	0	---	0.00	29.869 
01:55	65.5	65.5	65.5	96	64.3	0	0	---	0.00	29.869 
02:00	65.3	65.3	65.3	96	64.1	0	0	---	0.00	29.868 
02:05	65.2	65.2	65.2	96	64.0	0	0	---	0.00	29.865 
02:10	65.2	65.2	65.2	96	64.0	0	0	---	0.00	29.870 
02:15	65.0	65.0	65.0	96	63.8	0	0	---	0.00	29.865 
02:20	65.0	65.0	65.0	96	63.8	0	0	---	0.00	29.870 
02:25	64.8	64.8	64.8	96	63.6	0	0	---	0.00	29.868 
02:30	64.8	64.8	64.8	96	63.6	0	0	---	0.00	29.868 
02:35	64.7	64.7	64.7	96	63.5	0	0	---	0.00	29.867 
02:40	64.7	64.7	64.7	96	63.5	0	0	---	0.00	29.869 
02:45	64.5	64.5	64.5	96	63.3	0	0	---	0.00	29.869 
02:50	64.5	64.5	64.5	96	63.3	0	0	---	0.00	29.870 
02:55	64.5	64.5	64.5	96	63.3	0	0	---	0.00	29.870 
03:00	64.5	64.5	64.5	96	63.3	0	0	---	0.00	29.873 
03:05	64.5	64.5	64.5	96	63.3	0	0	---	0.00	29.872 
03:10	64.7	64.7	64.7	96	63.5	0	0	---	0.00	29.871 
03:15	64.7	64.7	64.7	96	63.5	0	0	---	0.00	29.868 
03:20	64.8	64.8	64.8	96	63.6	0	0	---	0.00	29.866 
03:25	64.8	64.8	64.8	96	63.6	0	0	---	0.00	29.867 
03:30	64.8	64.8	64.8	96	63.6	0	0	---	0.00	29.865 
03:35	65.0	65.0	65.0	96	63.8	0	0	---	0.00	29.862 
03:40	65.3	65.3	65.3	96	64.1	0	0	---	0.00	29.866 
03:45	65.5	65.5	65.5	96	64.3	0	0	---	0.00	29.859 
03:50	65.6	65.6	65.6	96	64.4	0	0	---	0.00	29.861 
03:55	65.6	65.6	65.6	96	64.4	0	0	---	0.00	29.858 
04:00	65.6	65.6	65.6	96	64.4	0	0	---	0.00	29.858 
04:05	65.6	65.6	65.6	96	64.4	0	0	---	0.00	29.868 
04:10	65.6	65.6	65.6	96	64.4	0	0	---	0.00	29.865 
04:15	65.6	65.6	65.6	96	64.4	0	0	---	0.00	29.861 
04:20	65.8	65.8	65.8	97	64.9	0	0	---	0.00	29.862 
04:25	65.8	65.8	65.8	97	64.9	0	0	---	0.00	29.864 
04:30	65.8	65.8	65.8	97	64.9	0	0	---	0.00	29.862 
04:35	65.6	65.6	65.6	97	64.7	0	0	---	0.00	29.863 
04:40	65.6	65.6	65.6	97	64.7	0	0	---	0.00	29.867 
04:45	65.6	65.6	65.6	97	64.7	0	0	---	0.00	29.866 
04:50	65.6	65.6	65.6	97	64.7	0	0	---	0.00	29.868 
04:55	65.6	65.6	65.6	97	64.7	0	0	---	0.00	29.870 
05:00	65.5	65.5	65.5	97	64.6	0	0	---	0.00	29.868 
05:05	65.6	65.6	65.6	97	64.7	0	0	---	0.00	29.876 
05:10	65.5	65.5	65.5	97	64.6	0	0	---	0.00	29.875 
05:15	65.6	65.6	65.6	97	64.7	0	0	---	0.00	29.876 
05:20	65.6	65.6	65.6	97	64.7	0	0	---	0.00	29.876 
05:25	65.6	65.6	65.6	97	64.7	0	0	---	0.00	29.875 
05:30	65.6	65.6	65.6	97	64.7	0	0	---	0.00	29.879 
05:35	65.8	65.8	65.8	97	64.9	0	0	---	0.00	29.883 
05:40	66.0	66.0	66.0	97	65.1	0	0	---	0.00	29.886 
05:45	66.3	66.3	66.3	97	65.4	0	0	---	0.00	29.888 
05:50	66.8	66.8	66.8	97	65.9	0	1	315	0.00	29.885 
05:55	67.3	67.3	67.3	97	66.4	0	0	---	0.00	29.885 
06:00	67.6	67.6	67.6	97	66.7	0	1	315	0.00	29.886 
06:05	67.8	67.8	67.8	97	66.9	0	1	315	0.00	29.883 
06:10	67.9	67.9	67.9	97	67.0	0	2	315	0.00	29.887 
06:15	68.1	68.1	68.1	97	67.2	0	3	315	0.00	29.884 
06:20	68.1	68.1	68.1	97	67.2	0	1	248	0.00	29.886 
06:25	68.3	68.3	68.3	97	67.4	0	1	248	0.00	29.886 
06:30	68.3	68.3	68.3	97	67.4	0	0	---	0.00	29.885 
06:35	68.6	68.6	68.6	97	67.7	0	1	248	0.00	29.883 
06:40	68.9	68.9	68.9	97	68.0	0	1	248	0.00	29.878 
06:45	69.1	69.1	69.1	97	68.2	0	0	---	0.00	29.875 
06:50	69.1	69.1	69.1	97	68.2	0	0	---	0.00	29.876 
06:55	69.3	69.3	69.3	97	68.4	0	1	248	0.00	29.874 
07:00	69.6	69.6	69.6	97	68.7	0	1	248	0.00	29.874 
07:05	70.1	70.1	70.1	97	69.2	0	1	248	0.00	29.878 
07:10	70.6	70.6	70.6	97	69.7	0	1	248	0.00	29.877 
07:15	71.1	71.1	71.1	96	69.9	1	2	248	0.00	29.883 
07:20	71.5	71.5	71.5	96	70.3	0	2	248	0.00	29.876 
07:25	72.0	72.0	72.0	95	70.5	1	2	248	0.00	29.880 
07:30	72.7	72.7	72.7	93	70.6	0	2	248	0.00	29.873 
07:35	73.2	73.2	73.2	91	70.4	0	2	248	0.00	29.869 
07:40	73.9	73.9	73.9	88	70.1	1	3	248	0.00	29.869 
07:45	74.4	74.4	74.4	86	69.9	0	2	248	0.00	29.868 
07:50	74.7	74.7	74.7	81	68.5	1	2	292	0.00	29.868 
07:55	74.9	74.9	74.9	80	68.3	1	3	292	0.00	29.869 
08:00	74.9	74.9	74.9	80	68.3	0	1	180	0.00	29.865 
08:05	74.7	74.7	74.7	81	68.5	0	1	180	0.00	29.862 
08:10	75.3	75.3	75.9	81	69.1	0	1	180	0.00	29.863 
08:15	76.0	76.0	77.0	80	69.4	1	3	225	0.00	29.854 
08:20	76.5	76.5	78.0	76	68.4	1	4	248	0.00	29.853 
08:25	77.0	77.0	78.7	76	68.8	0	2	248	0.00	29.851 
08:30	77.4	77.4	79.3	75	68.8	1	2	248	0.00	29.851 
08:35	77.7	77.7	79.7	75	69.1	0	1	248	0.00	29.852 
08:40	77.9	77.9	80.0	73	68.5	0	2	248	0.00	29.852 
08:45	78.1	78.1	80.3	73	68.7	1	3	248	0.00	29.863 
08:50	78.5	78.5	81.0	75	69.9	1	3	248	0.00	29.864 
08:55	79.0	79.0	81.6	73	69.6	1	2	248	0.00	29.860 
09:00	79.4	79.4	82.3	73	70.0	1	3	292	0.00	29.861 
09:05	79.6	79.6	82.6	73	70.2	1	3	270	0.00	29.859 
09:10	79.4	79.4	82.2	72	69.6	1	3	248	0.00	29.853 
09:15	79.6	79.6	82.6	73	70.2	1	3	225	0.00	29.855 
09:20	79.9	79.9	83.1	73	70.4	1	3	315	0.00	29.852 
09:25	79.9	79.9	82.7	69	68.8	2	3	292	0.00	29.853 
09:30	79.4	79.4	82.0	70	68.7	1	3	292	0.00	29.852 
09:35	79.4	79.4	82.3	73	70.0	1	2	270	0.00	29.854 
09:40	79.6	79.6	82.5	72	69.8	1	2	248	0.00	29.851 
09:45	79.8	79.8	82.9	72	69.9	1	2	248	0.00	29.850 
09:50	80.3	80.3	83.7	72	70.4	1	2	270	0.00	29.849 
09:55	80.9	80.9	84.6	71	70.6	1	2	270	0.00	29.845 
10:00	81.2	81.2	84.8	69	70.0	1	2	270	0.00	29.844 
10:05	81.2	81.2	84.8	69	70.0	1	3	270	0.00	29.847 
10:10	81.4	81.4	85.3	70	70.7	1	3	248	0.00	29.846 
10:15	81.8	81.8	85.5	67	69.7	1	3	248	0.00	29.844 
10:20	82.0	82.0	86.7	71	71.6	1	3	292	0.00	29.841 
10:25	82.4	82.4	86.5	67	70.3	1	2	248	0.00	29.837 
10:30	82.8	82.8	87.7	69	71.6	0	3	248	0.00	29.836 
10:35	82.8	82.8	87.2	67	70.7	1	3	248	0.00	29.837 
10:40	83.2	83.2	87.7	66	70.6	1	4	248	0.00	29.840 
10:45	83.6	83.6	89.3	69	72.3	1	3	90	0.00	29.837 
10:50	84.0	84.0	88.9	65	70.9	1	3	90	0.00	29.836 
10:55	84.0	84.0	88.4	63	70.0	1	3	270	0.00	29.835 
11:00	84.0	84.0	88.1	62	69.5	1	5	270	0.00	29.834 
11:05	84.3	84.3	89.5	65	71.2	1	4	248	0.00	29.835 
11:10	84.5	84.5	89.9	65	71.4	1	4	90	0.00	29.833 
11:15	84.7	84.7	90.6	66	72.1	0	3	90	0.00	29.831 
11:20	84.9	84.9	91.0	66	72.2	1	2	90	0.00	29.832 
11:25	84.9	84.9	89.7	62	70.4	1	4	90	0.00	29.832 
11:30	84.5	84.5	89.9	65	71.4	2	3	248	0.00	29.832 
11:35	84.7	84.7	90.6	66	72.1	1	4	248	0.00	29.833 
11:40	84.7	84.7	89.6	63	70.7	1	2	292	0.00	29.832 
11:45	84.5	84.5	89.6	64	71.0	1	3	292	0.00	29.832 
11:50	84.7	84.7	90.0	64	71.1	1	2	270	0.00	29.831 
11:55	85.1	85.1	90.8	64	71.5	1	2	270	0.00	29.830 
12:00	85.3	85.3	90.5	62	70.8	2	4	270	0.00	29.829 
12:05	85.5	85.5	90.8	62	71.0	2	5	248	0.00	29.827 
12:10	85.9	85.9	91.6	62	71.3	1	4	248	0.00	29.828 
12:15	86.1	86.1	91.3	60	70.6	2	3	0	0.00	29.819 
12:20	86.1	86.1	91.7	61	71.0	2	5	248	0.00	29.820 
12:25	86.1	86.1	92.0	62	71.5	1	4	270	0.00	29.817 
12:30	86.1	86.1	92.0	62	71.5	1	3	270	0.00	29.817 
12:35	86.1	86.1	92.4	63	72.0	1	4	248	0.00	29.815 
12:40	86.1	86.1	92.0	62	71.5	1	6	248	0.00	29.819 
12:45	85.9	85.9	91.6	62	71.3	1	3	248	0.00	29.819 
12:50	85.5	85.5	91.2	63	71.4	1	4	248	0.00	29.822 
12:55	84.9	84.9	90.4	64	71.3	1	4	248	0.00	29.819 
13:00	84.1	84.1	88.8	64	70.6	1	4	248	0.00	29.828 
13:05	83.6	83.6	88.2	65	70.6	2	4	248	0.00	29.835 
13:10	83.0	83.0	87.3	66	70.4	2	4	248	0.00	29.832 
13:15	82.6	82.6	87.1	68	70.9	2	4	270	0.00	29.832 
13:20	82.0	82.0	86.2	69	70.8	2	6	270	0.00	29.839 
13:25	79.0	79.0	80.7	60	63.9	5	9	270	0.00	29.852 
13:30	76.8	76.8	78.6	63	63.2	2	5	270	0.00	29.851 
13:35	75.8	75.8	77.7	65	63.2	2	5	315	0.00	29.844 
13:40	75.3	75.3	77.2	67	63.6	2	5	270	0.00	29.837 
13:45	74.7	74.7	74.7	69	63.8	1	3	315	0.00	29.830 
13:50	73.9	73.9	73.9	73	64.7	1	4	315	0.00	29.833 
13:55	72.7	72.7	72.7	77	65.1	2	4	270	0.01	29.839 
14:00	71.6	71.6	71.6	80	65.1	2	4	315	0.01	29.841 
14:05	71.1	71.1	71.1	81	65.0	2	5	248	0.00	29.848 
14:10	71.1	71.1	71.1	82	65.3	0	4	270	0.00	29.848 
14:15	71.3	71.3	71.3	83	65.9	0	1	270	0.00	29.846 
14:20	71.5	71.5	71.5	83	66.1	0	1	270	0.00	29.846 
14:25	71.8	71.8	71.8	83	66.3	0	1	270	0.00	29.845 
14:30	72.1	72.1	72.1	81	65.9	0	2	270	0.00	29.832 
14:35	72.7	72.7	72.7	79	65.8	0	1	270	0.00	29.828 
14:40	73.5	73.5	73.5	75	65.1	1	2	270	0.00	29.826 
14:45	74.4	74.4	74.4	74	65.6	0	2	270	0.00	29.823 
14:50	74.7	74.7	74.7	72	65.1	0	1	270	0.00	29.815 
14:55	75.6	75.6	77.0	73	66.3	0	2	270	0.00	29.822 
15:00	76.3	76.3	78.0	70	65.8	0	2	270	0.00	29.825 
15:05	77.0	77.0	78.8	69	66.0	0	1	270	0.00	29.824 
15:10	78.1	78.1	80.1	68	66.7	0	2	270	0.00	29.824 
15:15	79.0	79.0	81.1	66	66.6	1	3	248	0.00	29.822 
15:20	79.8	79.8	82.1	65	67.0	0	2	248	0.00	29.817 
15:25	80.5	80.5	82.7	62	66.3	0	1	248	0.00	29.814 
15:30	81.1	81.1	83.3	61	66.4	0	2	248	0.00	29.806 
15:35	81.6	81.6	83.9	60	66.3	0	2	248	0.00	29.806 
15:40	81.8	81.8	84.3	61	67.0	1	2	248	0.00	29.801 
15:45	82.0	82.0	84.8	62	67.7	1	2	270	0.00	29.797 
15:50	82.0	82.0	84.6	61	67.2	0	2	270	0.00	29.793 
15:55	82.0	82.0	84.6	61	67.2	1	3	270	0.00	29.797 
16:00	81.6	81.6	84.0	61	66.8	1	3	270	0.00	29.804 
16:05	81.1	81.1	83.6	63	67.3	1	3	270	0.00	29.808 
16:10	80.7	80.7	83.2	64	67.4	2	4	248	0.00	29.810 
16:15	80.5	80.5	83.1	65	67.6	1	3	270	0.00	29.807 
16:20	80.1	80.1	82.5	65	67.2	1	3	270	0.00	29.807 
16:25	79.9	79.9	82.2	65	67.1	1	4	270	0.00	29.808 
16:30	79.6	79.6	81.6	63	65.9	1	2	270	0.00	29.808 
16:35	79.2	79.2	81.1	62	65.0	2	5	248	0.00	29.812 
16:40	78.3	78.3	80.1	62	64.2	2	4	270	0.00	29.817 
16:45	77.6	77.6	79.4	63	64.0	1	4	248	0.00	29.811 
16:50	76.8	76.8	78.6	63	63.2	1	4	248	0.00	29.811 
16:55	76.3	76.3	78.2	64	63.2	1	4	270	0.00	29.808 
17:00	76.0	76.0	77.9	64	62.9	1	3	270	0.00	29.809 
17:05	75.6	75.6	77.5	65	63.0	1	3	0	0.00	29.808 
17:10	75.3	75.3	77.2	67	63.6	1	3	270	0.00	29.811 
17:15	74.6	74.6	74.6	69	63.7	1	4	270	0.00	29.812 
17:20	74.0	74.0	74.0	70	63.6	1	3	270	0.00	29.811 
17:25	73.7	73.7	73.7	72	64.1	1	3	270	0.00	29.814 
17:30	73.3	73.3	73.3	73	64.1	0	1	270	0.00	29.813 
17:35	73.2	73.2	73.2	75	64.8	0	1	270	0.00	29.821 
17:40	73.0	73.0	73.0	74	64.2	0	1	270	0.00	29.823 
17:45	72.8	72.8	72.8	74	64.0	0	1	270	0.00	29.817 
17:50	72.8	72.8	72.8	72	63.2	0	3	292	0.00	29.814 
17:55	72.8	72.8	72.8	72	63.2	0	2	270	0.00	29.812 
18:00	73.0	73.0	73.0	71	63.0	0	1	270	0.00	29.807 
18:05	73.0	73.0	73.0	71	63.0	0	0	---	0.00	29.801 
18:10	73.2	73.2	73.2	69	62.4	0	1	270	0.00	29.799 
18:15	73.3	73.3	73.3	68	62.1	0	1	270	0.00	29.795 
18:20	73.5	73.5	73.5	67	61.9	0	1	270	0.00	29.795 
18:25	73.5	73.5	73.5	67	61.9	0	1	270	0.00	29.793 
18:30	73.7	73.7	73.7	69	62.9	0	1	270	0.00	29.794 
18:35	73.7	73.7	73.7	70	63.3	0	2	270	0.00	29.793 
18:40	73.7	73.7	73.7	70	63.3	0	2	0	0.00	29.794 
18:45	73.3	73.3	73.3	71	63.3	1	2	338	0.00	29.792 
18:50	73.0	73.0	73.0	72	63.4	1	3	248	0.00	29.795 
18:55	72.5	72.5	72.5	74	63.7	0	3	270	0.00	29.800 
19:00	72.3	72.3	72.3	75	63.9	0	3	270	0.00	29.801 
19:05	72.1	72.1	72.1	75	63.7	0	2	270	0.00	29.800 
19:10	72.0	72.0	72.0	76	64.0	0	1	270	0.00	29.798 
19:15	71.8	71.8	71.8	76	63.8	0	1	270	0.00	29.795 
19:20	71.6	71.6	71.6	77	64.0	0	2	270	0.00	29.792 
19:25	71.6	71.6	71.6	77	64.0	0	1	270	0.00	29.790 
19:30	71.3	71.3	71.3	77	63.7	0	3	248	0.00	29.785 
19:35	71.3	71.3	71.3	78	64.1	0	0	---	0.00	29.788 
19:40	71.1	71.1	71.1	77	63.5	0	1	248	0.00	29.785 
19:45	70.9	70.9	70.9	77	63.3	0	1	248	0.00	29.781 
19:50	70.9	70.9	70.9	77	63.3	0	1	248	0.00	29.782 
19:55	70.8	70.8	70.8	77	63.2	0	0	---	0.00	29.785 
20:00	70.8	70.8	70.8	77	63.2	0	0	---	0.00	29.789 
20:05	70.8	70.8	70.8	77	63.2	0	1	248	0.00	29.789 
20:10	70.8	70.8	70.8	77	63.2	0	1	248	0.00	29.789 
20:15	70.8	70.8	70.8	77	63.2	0	1	248	0.00	29.790 
20:20	70.8	70.8	70.8	77	63.2	0	1	248	0.00	29.792 
20:25	70.8	70.8	70.8	77	63.2	0	0	---	0.00	29.790 
20:30	70.8	70.8	70.8	77	63.2	0	0	---	0.00	29.792 
20:35	70.6	70.6	70.6	77	63.0	0	1	248	0.00	29.792 
20:40	70.6	70.6	70.6	78	63.4	0	1	248	0.00	29.794 
20:45	70.6	70.6	70.6	78	63.4	0	0	---	0.00	29.794 
20:50	70.4	70.4	70.4	79	63.6	0	0	---	0.00	29.791 
20:55	70.3	70.3	70.3	79	63.5	0	0	---	0.00	29.790 
21:00	70.1	70.1	70.1	80	63.6	0	1	248	0.00	29.790 
21:05	69.9	69.9	69.9	81	63.8	0	0	---	0.00	29.788 
21:10	69.8	69.8	69.8	81	63.7	0	0	---	0.00	29.793 
21:15	69.8	69.8	69.8	81	63.7	0	0	---	0.00	29.797 
21:20	69.8	69.8	69.8	82	64.0	0	0	---	0.00	29.799 
21:25	69.8	69.8	69.8	82	64.0	0	1	248	0.00	29.799 
21:30	69.8	69.8	69.8	83	64.4	0	1	248	0.00	29.800 
21:35	69.9	69.9	69.9	83	64.5	0	1	248	0.00	29.798 
21:40	69.9	69.9	69.9	83	64.5	0	1	248	0.00	29.802 
21:45	69.9	69.9	69.9	83	64.5	0	1	248	0.00	29.803 
21:50	69.8	69.8	69.8	83	64.4	0	1	248	0.00	29.805 
21:55	69.6	69.6	69.6	84	64.5	0	1	248	0.00	29.806 
22:00	69.4	69.4	69.4	84	64.3	0	0	---	0.00	29.808 
22:05	69.4	69.4	69.4	84	64.3	0	0	---	0.00	29.806 
22:10	69.3	69.3	69.3	84	64.2	0	0	---	0.00	29.804 
22:15	69.1	69.1	69.1	85	64.4	0	0	---	0.00	29.805 
22:20	68.9	68.9	68.9	86	64.5	0	0	---	0.00	29.810 
22:25	68.8	68.8	68.8	86	64.4	0	1	248	0.00	29.812 
22:30	68.8	68.8	68.8	87	64.8	0	1	248	0.00	29.810 
22:35	68.9	68.9	68.9	87	64.9	0	1	248	0.00	29.810 
22:40	68.9	68.9	68.9	87	64.9	0	0	---	0.00	29.809 
22:45	68.8	68.8	68.8	87	64.8	0	1	248	0.00	29.806 
22:50	68.8	68.8	68.8	87	64.8	0	1	248	0.00	29.802 
22:55	68.8	68.8	68.8	87	64.8	0	1	248	0.00	29.799 
23:00	68.6	68.6	68.6	87	64.6	0	0	---	0.00	29.796 
23:05	68.6	68.6	68.6	88	64.9	0	0	---	0.00	29.796 
23:10	68.4	68.4	68.4	88	64.7	0	1	248	0.00	29.797 
23:15	68.3	68.3	68.3	88	64.6	0	1	248	0.00	29.800 
23:20	68.3	68.3	68.3	89	64.9	0	1	248	0.00	29.801 
23:25	68.3	68.3	68.3	89	64.9	0	1	248	0.00	29.801 
23:30	68.3	68.3	68.3	89	64.9	0	1	248	0.00	29.796 
23:35	68.3	68.3	68.3	89	64.9	0	1	248	0.00	29.792 
23:40	68.1	68.1	68.1	89	64.7	0	0	---	0.00	29.790 
23:45	68.1	68.1	68.1	90	65.0	0	0	---	0.00	29.786 
23:50	67.9	67.9	67.9	90	64.9	0	0	---	0.00	29.786 
23:55	67.8	67.8	67.8	90	64.8	0	0	---	0.00	29.786 

CoCoRaHS
IN-AL-39
A2 Web Hosting
Creative Commons License
GoDaddy
Look for:

loaded 2017-10-17 09:30:54 • last modified 2010-11-18 10:43:29
Privacy PolicyDisclaimer
• wx.awcolley.com is powered by PmWiki v.2002016 •
• all content (unless otherwise noted) © 2017 A W Colley